sensor_id;sensor_type;location;lat;lon;timestamp;P1;durP1;ratioP1;P2;durP2;ratioP2
22378;SDS011;11357;49.990;7.370;2023-06-22T00:02:13;9.30;;;8.32;;
22378;SDS011;11357;49.990;7.370;2023-06-22T00:04:39;10.05;;;9.02;;
22378;SDS011;11357;49.990;7.370;2023-06-22T00:07:05;9.57;;;8.68;;
22378;SDS011;11357;49.990;7.370;2023-06-22T00:09:31;11.43;;;9.00;;
22378;SDS011;11357;49.990;7.370;2023-06-22T00:11:57;9.50;;;8.48;;
22378;SDS011;11357;49.990;7.370;2023-06-22T00:14:23;12.75;;;8.52;;
22378;SDS011;11357;49.990;7.370;2023-06-22T00:16:48;9.88;;;8.88;;
22378;SDS011;11357;49.990;7.370;2023-06-22T00:19:19;8.93;;;8.10;;
22378;SDS011;11357;49.990;7.370;2023-06-22T00:21:47;12.52;;;8.07;;
22378;SDS011;11357;49.990;7.370;2023-06-22T00:24:17;12.07;;;9.15;;
22378;SDS011;11357;49.990;7.370;2023-06-22T00:26:47;9.25;;;7.97;;
22378;SDS011;11357;49.990;7.370;2023-06-22T00:29:13;18.63;;;11.82;;
22378;SDS011;11357;49.990;7.370;2023-06-22T00:31:39;13.40;;;11.75;;
22378;SDS011;11357;49.990;7.370;2023-06-22T00:34:05;14.43;;;11.65;;
22378;SDS011;11357;49.990;7.370;2023-06-22T00:36:31;12.85;;;10.98;;
22378;SDS011;11357;49.990;7.370;2023-06-22T00:38:57;12.30;;;11.00;;
22378;SDS011;11357;49.990;7.370;2023-06-22T00:41:23;15.88;;;12.38;;
22378;SDS011;11357;49.990;7.370;2023-06-22T00:43:48;16.30;;;12.20;;
22378;SDS011;11357;49.990;7.370;2023-06-22T00:46:14;17.23;;;12.52;;
22378;SDS011;11357;49.990;7.370;2023-06-22T00:48:40;17.70;;;12.40;;
22378;SDS011;11357;49.990;7.370;2023-06-22T00:51:08;15.77;;;12.80;;
22378;SDS011;11357;49.990;7.370;2023-06-22T00:53:35;12.75;;;11.45;;
22378;SDS011;11357;49.990;7.370;2023-06-22T00:56:03;15.60;;;11.88;;
22378;SDS011;11357;49.990;7.370;2023-06-22T00:58:30;13.73;;;11.80;;
22378;SDS011;11357;49.990;7.370;2023-06-22T01:00:56;12.80;;;11.48;;
22378;SDS011;11357;49.990;7.370;2023-06-22T01:03:22;13.65;;;11.88;;
22378;SDS011;11357;49.990;7.370;2023-06-22T01:05:48;14.50;;;11.35;;
22378;SDS011;11357;49.990;7.370;2023-06-22T01:08:23;13.18;;;11.52;;
22378;SDS011;11357;49.990;7.370;2023-06-22T01:10:53;13.35;;;11.60;;
22378;SDS011;11357;49.990;7.370;2023-06-22T01:16:14;13.07;;;11.60;;
22378;SDS011;11357;49.990;7.370;2023-06-22T01:18:41;13.85;;;11.77;;
22378;SDS011;11357;49.990;7.370;2023-06-22T01:21:09;13.35;;;11.85;;
22378;SDS011;11357;49.990;7.370;2023-06-22T01:28:55;11.73;;;10.52;;
22378;SDS011;11357;49.990;7.370;2023-06-22T01:31:24;14.73;;;11.93;;
22378;SDS011;11357;49.990;7.370;2023-06-22T01:34:09;14.63;;;13.10;;
22378;SDS011;11357;49.990;7.370;2023-06-22T01:36:37;16.27;;;13.55;;
22378;SDS011;11357;49.990;7.370;2023-06-22T01:39:04;16.45;;;13.25;;
22378;SDS011;11357;49.990;7.370;2023-06-22T01:41:33;15.75;;;12.57;;
22378;SDS011;11357;49.990;7.370;2023-06-22T01:44:04;13.40;;;11.70;;
22378;SDS011;11357;49.990;7.370;2023-06-22T01:46:33;13.60;;;11.63;;
22378;SDS011;11357;49.990;7.370;2023-06-22T01:49:00;13.45;;;11.75;;
22378;SDS011;11357;49.990;7.370;2023-06-22T01:51:30;16.42;;;11.57;;
22378;SDS011;11357;49.990;7.370;2023-06-22T01:53:56;14.73;;;13.23;;
22378;SDS011;11357;49.990;7.370;2023-06-22T01:56:21;17.33;;;13.45;;
22378;SDS011;11357;49.990;7.370;2023-06-22T01:58:52;18.00;;;16.10;;
22378;SDS011;11357;49.990;7.370;2023-06-22T02:01:55;16.90;;;15.10;;
22378;SDS011;11357;49.990;7.370;2023-06-22T02:04:41;21.35;;;15.43;;
22378;SDS011;11357;49.990;7.370;2023-06-22T02:07:12;21.55;;;16.20;;
22378;SDS011;11357;49.990;7.370;2023-06-22T02:09:42;18.85;;;14.98;;
22378;SDS011;11357;49.990;7.370;2023-06-22T02:12:11;17.45;;;14.93;;
22378;SDS011;11357;49.990;7.370;2023-06-22T02:14:38;16.08;;;14.32;;
22378;SDS011;11357;49.990;7.370;2023-06-22T02:17:05;18.23;;;14.60;;
22378;SDS011;11357;49.990;7.370;2023-06-22T02:19:37;14.70;;;12.77;;
22378;SDS011;11357;49.990;7.370;2023-06-22T02:22:04;17.85;;;14.70;;
22378;SDS011;11357;49.990;7.370;2023-06-22T02:24:30;18.30;;;13.57;;
22378;SDS011;11357;49.990;7.370;2023-06-22T02:27:00;14.15;;;11.52;;
22378;SDS011;11357;49.990;7.370;2023-06-22T02:29:27;18.65;;;13.90;;
22378;SDS011;11357;49.990;7.370;2023-06-22T02:31:53;15.50;;;13.88;;
22378;SDS011;11357;49.990;7.370;2023-06-22T02:34:20;16.70;;;14.70;;
22378;SDS011;11357;49.990;7.370;2023-06-22T02:36:46;15.93;;;13.70;;
22378;SDS011;11357;49.990;7.370;2023-06-22T02:39:34;13.60;;;12.13;;
22378;SDS011;11357;49.990;7.370;2023-06-22T02:41:59;15.48;;;13.40;;
22378;SDS011;11357;49.990;7.370;2023-06-22T02:44:25;14.70;;;12.50;;
22378;SDS011;11357;49.990;7.370;2023-06-22T02:46:51;14.95;;;12.80;;
22378;SDS011;11357;49.990;7.370;2023-06-22T02:49:17;15.68;;;12.75;;
22378;SDS011;11357;49.990;7.370;2023-06-22T02:51:45;18.55;;;16.45;;
22378;SDS011;11357;49.990;7.370;2023-06-22T02:54:11;19.85;;;15.77;;
22378;SDS011;11357;49.990;7.370;2023-06-22T02:56:37;22.77;;;16.50;;
22378;SDS011;11357;49.990;7.370;2023-06-22T02:59:03;21.60;;;17.05;;
22378;SDS011;11357;49.990;7.370;2023-06-22T03:01:28;17.45;;;15.52;;
22378;SDS011;11357;49.990;7.370;2023-06-22T03:03:58;23.13;;;16.08;;
22378;SDS011;11357;49.990;7.370;2023-06-22T03:06:24;17.42;;;14.60;;
22378;SDS011;11357;49.990;7.370;2023-06-22T03:08:56;22.75;;;16.30;;
22378;SDS011;11357;49.990;7.370;2023-06-22T03:11:23;20.58;;;15.50;;
22378;SDS011;11357;49.990;7.370;2023-06-22T03:13:49;17.88;;;15.00;;
22378;SDS011;11357;49.990;7.370;2023-06-22T03:16:17;19.27;;;14.65;;
22378;SDS011;11357;49.990;7.370;2023-06-22T03:18:43;15.75;;;13.75;;
22378;SDS011;11357;49.990;7.370;2023-06-22T03:21:08;20.50;;;15.18;;
22378;SDS011;11357;49.990;7.370;2023-06-22T03:23:34;17.13;;;14.23;;
22378;SDS011;11357;49.990;7.370;2023-06-22T03:26:00;23.90;;;17.05;;
22378;SDS011;11357;49.990;7.370;2023-06-22T03:28:26;24.10;;;16.33;;
22378;SDS011;11357;49.990;7.370;2023-06-22T03:30:51;24.50;;;15.75;;
22378;SDS011;11357;49.990;7.370;2023-06-22T03:33:17;17.27;;;13.55;;
22378;SDS011;11357;49.990;7.370;2023-06-22T03:35:43;19.75;;;14.13;;
22378;SDS011;11357;49.990;7.370;2023-06-22T03:38:08;17.20;;;14.68;;
22378;SDS011;11357;49.990;7.370;2023-06-22T03:40:34;21.38;;;14.38;;
22378;SDS011;11357;49.990;7.370;2023-06-22T03:42:59;18.00;;;12.93;;
22378;SDS011;11357;49.990;7.370;2023-06-22T03:45:25;14.70;;;13.10;;
22378;SDS011;11357;49.990;7.370;2023-06-22T03:47:51;14.52;;;12.23;;
22378;SDS011;11357;49.990;7.370;2023-06-22T03:50:16;14.35;;;12.80;;
22378;SDS011;11357;49.990;7.370;2023-06-22T03:52:42;23.55;;;15.30;;
22378;SDS011;11357;49.990;7.370;2023-06-22T03:55:07;18.58;;;14.27;;
22378;SDS011;11357;49.990;7.370;2023-06-22T03:57:33;16.55;;;13.95;;
22378;SDS011;11357;49.990;7.370;2023-06-22T03:59:59;23.50;;;15.57;;
22378;SDS011;11357;49.990;7.370;2023-06-22T04:02:24;21.80;;;16.00;;
22378;SDS011;11357;49.990;7.370;2023-06-22T04:04:50;20.17;;;14.80;;
22378;SDS011;11357;49.990;7.370;2023-06-22T04:07:16;17.20;;;13.68;;
22378;SDS011;11357;49.990;7.370;2023-06-22T04:09:43;24.13;;;15.70;;
22378;SDS011;11357;49.990;7.370;2023-06-22T04:12:08;31.58;;;18.55;;
22378;SDS011;11357;49.990;7.370;2023-06-22T04:14:34;28.85;;;16.85;;
22378;SDS011;11357;49.990;7.370;2023-06-22T04:17:01;37.45;;;18.17;;
22378;SDS011;11357;49.990;7.370;2023-06-22T04:19:27;21.15;;;15.07;;
22378;SDS011;11357;49.990;7.370;2023-06-22T04:21:52;21.30;;;15.10;;
22378;SDS011;11357;49.990;7.370;2023-06-22T04:24:18;21.48;;;15.30;;
22378;SDS011;11357;49.990;7.370;2023-06-22T04:26:44;27.50;;;16.75;;
22378;SDS011;11357;49.990;7.370;2023-06-22T04:29:11;21.15;;;15.23;;
22378;SDS011;11357;49.990;7.370;2023-06-22T04:31:37;25.35;;;16.48;;
22378;SDS011;11357;49.990;7.370;2023-06-22T04:34:04;20.30;;;16.20;;
22378;SDS011;11357;49.990;7.370;2023-06-22T04:36:40;25.55;;;16.25;;
22378;SDS011;11357;49.990;7.370;2023-06-22T04:39:06;26.05;;;16.65;;
22378;SDS011;11357;49.990;7.370;2023-06-22T04:41:34;24.60;;;16.30;;
22378;SDS011;11357;49.990;7.370;2023-06-22T04:44:14;27.75;;;16.52;;
22378;SDS011;11357;49.990;7.370;2023-06-22T04:46:50;23.40;;;15.52;;
22378;SDS011;11357;49.990;7.370;2023-06-22T04:49:22;26.02;;;16.20;;
22378;SDS011;11357;49.990;7.370;2023-06-22T04:51:57;23.00;;;15.27;;
22378;SDS011;11357;49.990;7.370;2023-06-22T04:54:26;18.77;;;15.82;;
22378;SDS011;11357;49.990;7.370;2023-06-22T04:56:52;23.17;;;14.60;;
22378;SDS011;11357;49.990;7.370;2023-06-22T04:59:23;23.02;;;15.52;;
22378;SDS011;11357;49.990;7.370;2023-06-22T05:01:56;19.02;;;13.93;;
22378;SDS011;11357;49.990;7.370;2023-06-22T05:04:23;17.95;;;13.23;;
22378;SDS011;11357;49.990;7.370;2023-06-22T05:06:50;17.52;;;14.45;;
22378;SDS011;11357;49.990;7.370;2023-06-22T05:09:16;19.85;;;14.10;;
22378;SDS011;11357;49.990;7.370;2023-06-22T05:11:42;16.45;;;13.80;;
22378;SDS011;11357;49.990;7.370;2023-06-22T05:14:10;16.95;;;14.38;;
22378;SDS011;11357;49.990;7.370;2023-06-22T05:16:37;19.33;;;14.43;;
22378;SDS011;11357;49.990;7.370;2023-06-22T05:19:03;18.10;;;13.63;;
22378;SDS011;11357;49.990;7.370;2023-06-22T05:21:29;18.35;;;13.90;;
22378;SDS011;11357;49.990;7.370;2023-06-22T05:23:55;19.65;;;13.65;;
22378;SDS011;11357;49.990;7.370;2023-06-22T05:26:27;19.25;;;13.95;;
22378;SDS011;11357;49.990;7.370;2023-06-22T05:28:55;15.85;;;13.63;;
22378;SDS011;11357;49.990;7.370;2023-06-22T05:31:21;16.67;;;13.05;;
22378;SDS011;11357;49.990;7.370;2023-06-22T05:33:47;14.95;;;12.45;;
22378;SDS011;11357;49.990;7.370;2023-06-22T05:36:14;15.77;;;12.65;;
22378;SDS011;11357;49.990;7.370;2023-06-22T05:38:40;19.33;;;13.25;;
22378;SDS011;11357;49.990;7.370;2023-06-22T05:41:07;17.73;;;13.00;;
22378;SDS011;11357;49.990;7.370;2023-06-22T05:43:33;16.35;;;12.75;;
22378;SDS011;11357;49.990;7.370;2023-06-22T05:45:59;16.25;;;12.25;;
22378;SDS011;11357;49.990;7.370;2023-06-22T05:48:26;16.38;;;11.65;;
22378;SDS011;11357;49.990;7.370;2023-06-22T05:50:52;18.85;;;11.43;;
22378;SDS011;11357;49.990;7.370;2023-06-22T05:53:18;15.05;;;11.90;;
22378;SDS011;11357;49.990;7.370;2023-06-22T05:55:44;15.50;;;11.15;;
22378;SDS011;11357;49.990;7.370;2023-06-22T05:58:10;14.45;;;11.15;;
22378;SDS011;11357;49.990;7.370;2023-06-22T06:00:35;12.85;;;11.45;;
22378;SDS011;11357;49.990;7.370;2023-06-22T06:03:01;16.92;;;12.23;;
22378;SDS011;11357;49.990;7.370;2023-06-22T06:05:32;16.13;;;11.45;;
22378;SDS011;11357;49.990;7.370;2023-06-22T06:07:59;15.32;;;11.75;;
22378;SDS011;11357;49.990;7.370;2023-06-22T06:10:25;16.60;;;12.25;;
22378;SDS011;11357;49.990;7.370;2023-06-22T06:12:51;14.00;;;11.65;;
22378;SDS011;11357;49.990;7.370;2023-06-22T06:15:17;19.55;;;11.77;;
22378;SDS011;11357;49.990;7.370;2023-06-22T06:17:52;15.20;;;11.82;;
22378;SDS011;11357;49.990;7.370;2023-06-22T06:20:19;13.48;;;11.73;;
22378;SDS011;11357;49.990;7.370;2023-06-22T06:22:46;14.13;;;12.10;;
22378;SDS011;11357;49.990;7.370;2023-06-22T06:25:11;14.57;;;11.63;;
22378;SDS011;11357;49.990;7.370;2023-06-22T06:27:41;15.63;;;11.23;;
22378;SDS011;11357;49.990;7.370;2023-06-22T06:30:10;16.88;;;11.45;;
22378;SDS011;11357;49.990;7.370;2023-06-22T06:32:37;13.60;;;10.75;;
22378;SDS011;11357;49.990;7.370;2023-06-22T06:35:04;15.32;;;11.20;;
22378;SDS011;11357;49.990;7.370;2023-06-22T06:37:31;13.85;;;11.20;;
22378;SDS011;11357;49.990;7.370;2023-06-22T06:39:57;11.65;;;10.15;;
22378;SDS011;11357;49.990;7.370;2023-06-22T06:42:22;13.45;;;10.60;;
22378;SDS011;11357;49.990;7.370;2023-06-22T06:44:49;13.30;;;10.35;;
22378;SDS011;11357;49.990;7.370;2023-06-22T06:47:15;16.40;;;11.00;;
22378;SDS011;11357;49.990;7.370;2023-06-22T06:49:42;11.68;;;10.25;;
22378;SDS011;11357;49.990;7.370;2023-06-22T06:52:07;12.68;;;11.10;;
22378;SDS011;11357;49.990;7.370;2023-06-22T06:54:33;13.40;;;9.43;;
22378;SDS011;11357;49.990;7.370;2023-06-22T06:56:59;11.15;;;9.32;;
22378;SDS011;11357;49.990;7.370;2023-06-22T06:59:24;13.38;;;10.13;;
22378;SDS011;11357;49.990;7.370;2023-06-22T07:01:50;13.93;;;9.73;;
22378;SDS011;11357;49.990;7.370;2023-06-22T07:04:16;10.93;;;9.50;;
22378;SDS011;11357;49.990;7.370;2023-06-22T07:06:42;14.00;;;9.52;;
22378;SDS011;11357;49.990;7.370;2023-06-22T07:09:07;11.70;;;9.57;;
22378;SDS011;11357;49.990;7.370;2023-06-22T07:11:33;13.70;;;10.43;;
22378;SDS011;11357;49.990;7.370;2023-06-22T07:14:00;13.15;;;9.90;;
22378;SDS011;11357;49.990;7.370;2023-06-22T07:16:26;13.25;;;10.23;;
22378;SDS011;11357;49.990;7.370;2023-06-22T07:18:52;14.10;;;10.02;;
22378;SDS011;11357;49.990;7.370;2023-06-22T07:21:18;13.57;;;10.02;;
22378;SDS011;11357;49.990;7.370;2023-06-22T07:23:44;10.50;;;9.18;;
22378;SDS011;11357;49.990;7.370;2023-06-22T07:26:09;14.43;;;9.77;;
22378;SDS011;11357;49.990;7.370;2023-06-22T07:28:37;13.68;;;9.30;;
22378;SDS011;11357;49.990;7.370;2023-06-22T07:31:05;11.52;;;10.40;;
22378;SDS011;11357;49.990;7.370;2023-06-22T07:33:31;10.70;;;9.57;;
22378;SDS011;11357;49.990;7.370;2023-06-22T07:35:56;10.52;;;9.43;;
22378;SDS011;11357;49.990;7.370;2023-06-22T07:38:22;10.80;;;8.73;;
22378;SDS011;11357;49.990;7.370;2023-06-22T07:40:48;12.32;;;9.45;;
22378;SDS011;11357;49.990;7.370;2023-06-22T07:43:14;9.82;;;8.82;;
22378;SDS011;11357;49.990;7.370;2023-06-22T07:45:39;11.80;;;10.60;;
22378;SDS011;11357;49.990;7.370;2023-06-22T07:48:07;10.52;;;8.77;;
22378;SDS011;11357;49.990;7.370;2023-06-22T07:50:32;13.75;;;10.27;;
22378;SDS011;11357;49.990;7.370;2023-06-22T07:52:58;13.73;;;9.82;;
22378;SDS011;11357;49.990;7.370;2023-06-22T07:55:24;11.95;;;10.38;;
22378;SDS011;11357;49.990;7.370;2023-06-22T07:57:49;11.90;;;9.07;;
22378;SDS011;11357;49.990;7.370;2023-06-22T08:00:17;10.95;;;9.20;;
22378;SDS011;11357;49.990;7.370;2023-06-22T08:02:44;9.45;;;8.30;;
22378;SDS011;11357;49.990;7.370;2023-06-22T08:05:11;10.68;;;8.77;;
22378;SDS011;11357;49.990;7.370;2023-06-22T08:12:47;10.82;;;8.20;;
22378;SDS011;11357;49.990;7.370;2023-06-22T08:15:13;11.70;;;8.60;;
22378;SDS011;11357;49.990;7.370;2023-06-22T08:17:39;9.63;;;8.52;;
22378;SDS011;11357;49.990;7.370;2023-06-22T08:20:05;9.55;;;8.55;;
22378;SDS011;11357;49.990;7.370;2023-06-22T08:22:35;12.02;;;8.75;;
22378;SDS011;11357;49.990;7.370;2023-06-22T08:25:02;9.82;;;8.02;;
22378;SDS011;11357;49.990;7.370;2023-06-22T08:27:29;10.43;;;7.95;;
22378;SDS011;11357;49.990;7.370;2023-06-22T08:29:56;11.95;;;8.82;;
22378;SDS011;11357;49.990;7.370;2023-06-22T08:32:24;10.75;;;8.40;;
22378;SDS011;11357;49.990;7.370;2023-06-22T08:34:52;8.68;;;7.80;;
22378;SDS011;11357;49.990;7.370;2023-06-22T08:37:18;9.52;;;8.35;;
22378;SDS011;11357;49.990;7.370;2023-06-22T08:39:44;10.05;;;8.02;;
22378;SDS011;11357;49.990;7.370;2023-06-22T08:42:10;14.15;;;9.30;;
22378;SDS011;11357;49.990;7.370;2023-06-22T08:44:36;10.88;;;8.35;;
22378;SDS011;11357;49.990;7.370;2023-06-22T08:47:02;8.68;;;7.20;;
22378;SDS011;11357;49.990;7.370;2023-06-22T08:49:28;7.72;;;6.93;;
22378;SDS011;11357;49.990;7.370;2023-06-22T08:51:54;10.23;;;7.65;;
22378;SDS011;11357;49.990;7.370;2023-06-22T08:54:21;9.85;;;7.90;;
22378;SDS011;11357;49.990;7.370;2023-06-22T08:56:48;10.05;;;7.35;;
22378;SDS011;11357;49.990;7.370;2023-06-22T08:59:13;8.93;;;6.97;;
22378;SDS011;11357;49.990;7.370;2023-06-22T09:01:39;11.25;;;6.90;;
22378;SDS011;11357;49.990;7.370;2023-06-22T09:04:05;9.25;;;7.20;;
22378;SDS011;11357;49.990;7.370;2023-06-22T09:06:32;9.38;;;7.53;;
22378;SDS011;11357;49.990;7.370;2023-06-22T09:08:58;9.10;;;7.63;;
22378;SDS011;11357;49.990;7.370;2023-06-22T09:11:26;8.63;;;6.50;;
22378;SDS011;11357;49.990;7.370;2023-06-22T09:13:52;8.57;;;6.80;;
22378;SDS011;11357;49.990;7.370;2023-06-22T09:16:18;8.55;;;6.35;;
22378;SDS011;11357;49.990;7.370;2023-06-22T09:18:47;9.27;;;7.65;;
22378;SDS011;11357;49.990;7.370;2023-06-22T09:21:13;8.85;;;6.60;;
22378;SDS011;11357;49.990;7.370;2023-06-22T09:23:39;8.88;;;6.88;;
22378;SDS011;11357;49.990;7.370;2023-06-22T09:33:52;9.75;;;8.05;;
22378;SDS011;11357;49.990;7.370;2023-06-22T09:36:19;9.43;;;7.82;;
22378;SDS011;11357;49.990;7.370;2023-06-22T09:38:45;10.32;;;7.85;;
22378;SDS011;11357;49.990;7.370;2023-06-22T09:41:17;10.05;;;7.65;;
22378;SDS011;11357;49.990;7.370;2023-06-22T09:43:49;10.38;;;8.60;;
22378;SDS011;11357;49.990;7.370;2023-06-22T09:46:24;13.35;;;8.98;;
22378;SDS011;11357;49.990;7.370;2023-06-22T09:54:43;11.88;;;8.35;;
22378;SDS011;11357;49.990;7.370;2023-06-22T09:57:09;11.05;;;8.85;;
22378;SDS011;11357;49.990;7.370;2023-06-22T10:05:31;9.48;;;8.05;;
22378;SDS011;11357;49.990;7.370;2023-06-22T10:07:57;8.85;;;7.00;;
22378;SDS011;11357;49.990;7.370;2023-06-22T10:10:22;11.60;;;7.55;;
22378;SDS011;11357;49.990;7.370;2023-06-22T10:12:54;8.93;;;7.15;;
22378;SDS011;11357;49.990;7.370;2023-06-22T10:15:21;8.23;;;6.78;;
22378;SDS011;11357;49.990;7.370;2023-06-22T10:17:47;8.65;;;7.13;;
22378;SDS011;11357;49.990;7.370;2023-06-22T10:20:13;11.15;;;7.00;;
22378;SDS011;11357;49.990;7.370;2023-06-22T10:22:40;8.38;;;6.70;;
22378;SDS011;11357;49.990;7.370;2023-06-22T10:25:07;10.00;;;6.18;;
22378;SDS011;11357;49.990;7.370;2023-06-22T10:27:33;10.05;;;6.82;;
22378;SDS011;11357;49.990;7.370;2023-06-22T10:29:59;9.52;;;7.03;;
22378;SDS011;11357;49.990;7.370;2023-06-22T10:32:25;8.93;;;6.28;;
22378;SDS011;11357;49.990;7.370;2023-06-22T10:34:51;9.07;;;6.00;;
22378;SDS011;11357;49.990;7.370;2023-06-22T10:37:16;7.90;;;7.00;;
22378;SDS011;11357;49.990;7.370;2023-06-22T10:39:42;10.90;;;6.68;;
22378;SDS011;11357;49.990;7.370;2023-06-22T10:42:08;9.15;;;6.07;;
22378;SDS011;11357;49.990;7.370;2023-06-22T10:44:37;11.15;;;6.68;;
22378;SDS011;11357;49.990;7.370;2023-06-22T10:47:05;11.48;;;6.82;;
22378;SDS011;11357;49.990;7.370;2023-06-22T10:49:31;11.05;;;7.35;;
22378;SDS011;11357;49.990;7.370;2023-06-22T10:54:48;9.50;;;6.38;;
22378;SDS011;11357;49.990;7.370;2023-06-22T10:57:15;8.80;;;6.43;;
22378;SDS011;11357;49.990;7.370;2023-06-22T11:02:17;10.30;;;6.90;;
22378;SDS011;11357;49.990;7.370;2023-06-22T11:04:42;9.93;;;7.50;;
22378;SDS011;11357;49.990;7.370;2023-06-22T11:07:09;9.60;;;7.20;;
22378;SDS011;11357;49.990;7.370;2023-06-22T11:09:35;10.32;;;7.57;;
22378;SDS011;11357;49.990;7.370;2023-06-22T11:14:57;14.23;;;7.72;;
22378;SDS011;11357;49.990;7.370;2023-06-22T11:17:23;10.07;;;7.22;;
22378;SDS011;11357;49.990;7.370;2023-06-22T11:19:49;10.88;;;6.95;;
22378;SDS011;11357;49.990;7.370;2023-06-22T11:22:14;11.55;;;6.90;;
22378;SDS011;11357;49.990;7.370;2023-06-22T11:24:40;9.73;;;7.55;;
22378;SDS011;11357;49.990;7.370;2023-06-22T11:27:06;9.43;;;7.97;;
22378;SDS011;11357;49.990;7.370;2023-06-22T11:29:32;9.55;;;6.85;;
22378;SDS011;11357;49.990;7.370;2023-06-22T11:31:57;12.95;;;7.65;;
22378;SDS011;11357;49.990;7.370;2023-06-22T11:34:23;9.35;;;8.02;;
22378;SDS011;11357;49.990;7.370;2023-06-22T11:36:49;9.77;;;7.55;;
22378;SDS011;11357;49.990;7.370;2023-06-22T11:39:15;11.45;;;8.95;;
22378;SDS011;11357;49.990;7.370;2023-06-22T11:41:41;11.90;;;7.93;;
22378;SDS011;11357;49.990;7.370;2023-06-22T11:44:07;8.73;;;6.75;;
22378;SDS011;11357;49.990;7.370;2023-06-22T11:46:33;9.90;;;8.23;;
22378;SDS011;11357;49.990;7.370;2023-06-22T11:48:59;11.57;;;8.02;;
22378;SDS011;11357;49.990;7.370;2023-06-22T11:51:25;13.13;;;8.63;;
22378;SDS011;11357;49.990;7.370;2023-06-22T11:53:51;12.45;;;8.45;;
22378;SDS011;11357;49.990;7.370;2023-06-22T11:56:17;9.85;;;7.80;;
22378;SDS011;11357;49.990;7.370;2023-06-22T11:58:42;12.93;;;8.82;;
22378;SDS011;11357;49.990;7.370;2023-06-22T12:01:08;10.88;;;7.43;;
22378;SDS011;11357;49.990;7.370;2023-06-22T12:03:34;16.77;;;9.05;;
22378;SDS011;11357;49.990;7.370;2023-06-22T12:06:00;9.73;;;8.27;;
22378;SDS011;11357;49.990;7.370;2023-06-22T12:08:25;9.32;;;7.90;;
22378;SDS011;11357;49.990;7.370;2023-06-22T12:10:51;11.57;;;8.02;;
22378;SDS011;11357;49.990;7.370;2023-06-22T12:13:19;11.50;;;7.88;;
22378;SDS011;11357;49.990;7.370;2023-06-22T12:15:44;14.40;;;7.68;;
22378;SDS011;11357;49.990;7.370;2023-06-22T12:18:10;9.02;;;7.47;;
22378;SDS011;11357;49.990;7.370;2023-06-22T12:20:36;12.45;;;7.78;;
22378;SDS011;11357;49.990;7.370;2023-06-22T12:23:02;9.82;;;7.32;;
22378;SDS011;11357;49.990;7.370;2023-06-22T12:25:28;13.50;;;7.57;;
22378;SDS011;11357;49.990;7.370;2023-06-22T12:27:53;12.13;;;7.30;;
22378;SDS011;11357;49.990;7.370;2023-06-22T12:30:20;12.15;;;7.78;;
22378;SDS011;11357;49.990;7.370;2023-06-22T12:32:45;11.88;;;6.95;;
22378;SDS011;11357;49.990;7.370;2023-06-22T12:35:11;12.07;;;6.72;;
22378;SDS011;11357;49.990;7.370;2023-06-22T12:37:42;13.07;;;7.40;;
22378;SDS011;11357;49.990;7.370;2023-06-22T12:40:08;11.13;;;7.13;;
22378;SDS011;11357;49.990;7.370;2023-06-22T12:42:35;12.77;;;7.97;;
22378;SDS011;11357;49.990;7.370;2023-06-22T12:45:00;11.25;;;7.70;;
22378;SDS011;11357;49.990;7.370;2023-06-22T12:47:26;13.52;;;7.93;;
22378;SDS011;11357;49.990;7.370;2023-06-22T12:49:54;13.63;;;7.97;;
22378;SDS011;11357;49.990;7.370;2023-06-22T12:52:36;10.13;;;7.10;;
22378;SDS011;11357;49.990;7.370;2023-06-22T12:55:05;11.23;;;8.38;;
22378;SDS011;11357;49.990;7.370;2023-06-22T12:57:31;10.07;;;7.53;;
22378;SDS011;11357;49.990;7.370;2023-06-22T12:59:56;16.17;;;7.32;;
22378;SDS011;11357;49.990;7.370;2023-06-22T13:02:35;18.02;;;8.23;;
22378;SDS011;11357;49.990;7.370;2023-06-22T13:05:01;11.10;;;6.88;;
22378;SDS011;11357;49.990;7.370;2023-06-22T13:07:27;9.20;;;6.63;;
22378;SDS011;11357;49.990;7.370;2023-06-22T13:09:53;11.50;;;7.03;;
22378;SDS011;11357;49.990;7.370;2023-06-22T13:12:19;12.05;;;7.47;;
22378;SDS011;11357;49.990;7.370;2023-06-22T13:17:16;11.63;;;6.55;;
22378;SDS011;11357;49.990;7.370;2023-06-22T13:19:44;14.10;;;6.22;;
22378;SDS011;11357;49.990;7.370;2023-06-22T13:24:55;10.43;;;6.15;;
22378;SDS011;11357;49.990;7.370;2023-06-22T13:27:27;9.02;;;5.32;;
22378;SDS011;11357;49.990;7.370;2023-06-22T13:29:53;12.40;;;6.00;;
22378;SDS011;11357;49.990;7.370;2023-06-22T13:32:18;16.65;;;5.88;;
22378;SDS011;11357;49.990;7.370;2023-06-22T13:34:44;9.52;;;5.43;;
22378;SDS011;11357;49.990;7.370;2023-06-22T13:37:10;12.30;;;6.50;;
22378;SDS011;11357;49.990;7.370;2023-06-22T13:39:36;10.15;;;6.18;;
22378;SDS011;11357;49.990;7.370;2023-06-22T13:42:02;14.13;;;6.50;;
22378;SDS011;11357;49.990;7.370;2023-06-22T13:44:27;18.95;;;6.50;;
22378;SDS011;11357;49.990;7.370;2023-06-22T13:46:57;12.88;;;6.35;;
22378;SDS011;11357;49.990;7.370;2023-06-22T13:49:28;12.93;;;6.10;;
22378;SDS011;11357;49.990;7.370;2023-06-22T13:52:04;16.40;;;5.40;;
22378;SDS011;11357;49.990;7.370;2023-06-22T13:54:36;16.52;;;5.03;;
22378;SDS011;11357;49.990;7.370;2023-06-22T13:57:02;11.63;;;5.90;;
22378;SDS011;11357;49.990;7.370;2023-06-22T13:59:28;15.65;;;5.88;;
22378;SDS011;11357;49.990;7.370;2023-06-22T14:01:54;13.48;;;5.60;;
22378;SDS011;11357;49.990;7.370;2023-06-22T14:04:19;13.23;;;5.93;;
22378;SDS011;11357;49.990;7.370;2023-06-22T14:06:51;22.75;;;6.13;;
22378;SDS011;11357;49.990;7.370;2023-06-22T14:09:18;11.52;;;5.07;;
22378;SDS011;11357;49.990;7.370;2023-06-22T14:11:44;12.60;;;6.05;;
22378;SDS011;11357;49.990;7.370;2023-06-22T14:14:09;10.10;;;5.25;;
22378;SDS011;11357;49.990;7.370;2023-06-22T14:16:36;15.30;;;5.75;;
22378;SDS011;11357;49.990;7.370;2023-06-22T14:19:04;15.05;;;5.53;;
22378;SDS011;11357;49.990;7.370;2023-06-22T14:21:30;20.35;;;5.88;;
22378;SDS011;11357;49.990;7.370;2023-06-22T14:23:55;11.88;;;5.35;;
22378;SDS011;11357;49.990;7.370;2023-06-22T14:26:21;17.33;;;5.00;;
22378;SDS011;11357;49.990;7.370;2023-06-22T14:28:47;25.85;;;5.80;;
22378;SDS011;11357;49.990;7.370;2023-06-22T14:31:15;14.13;;;4.07;;
22378;SDS011;11357;49.990;7.370;2023-06-22T14:33:46;10.52;;;4.20;;
22378;SDS011;11357;49.990;7.370;2023-06-22T14:36:13;13.18;;;4.18;;
22378;SDS011;11357;49.990;7.370;2023-06-22T14:38:39;8.75;;;3.50;;
22378;SDS011;11357;49.990;7.370;2023-06-22T14:41:05;10.10;;;3.35;;
22378;SDS011;11357;49.990;7.370;2023-06-22T14:43:31;8.65;;;3.30;;
22378;SDS011;11357;49.990;7.370;2023-06-22T14:45:57;13.80;;;3.90;;
22378;SDS011;11357;49.990;7.370;2023-06-22T14:48:22;11.60;;;4.20;;
22378;SDS011;11357;49.990;7.370;2023-06-22T14:50:48;8.38;;;3.72;;
22378;SDS011;11357;49.990;7.370;2023-06-22T14:53:14;10.57;;;3.75;;
22378;SDS011;11357;49.990;7.370;2023-06-22T14:55:40;11.65;;;4.95;;
22378;SDS011;11357;49.990;7.370;2023-06-22T14:58:06;9.25;;;3.63;;
22378;SDS011;11357;49.990;7.370;2023-06-22T15:00:32;7.47;;;3.78;;
22378;SDS011;11357;49.990;7.370;2023-06-22T15:02:57;11.90;;;3.80;;
22378;SDS011;11357;49.990;7.370;2023-06-22T15:05:24;9.63;;;3.60;;
22378;SDS011;11357;49.990;7.370;2023-06-22T15:07:50;14.93;;;4.00;;
22378;SDS011;11357;49.990;7.370;2023-06-22T15:10:16;8.93;;;3.67;;
22378;SDS011;11357;49.990;7.370;2023-06-22T15:12:42;9.82;;;4.05;;
22378;SDS011;11357;49.990;7.370;2023-06-22T15:15:08;14.77;;;4.28;;
22378;SDS011;11357;49.990;7.370;2023-06-22T15:17:34;6.78;;;3.75;;